Terminal Aerodrome Forecast
Issued by NWS

Home | Current Version | Previous Version | Text Only | Print | Product List | Glossary On
Versions: 1 2 3 4 5 6 7 8 9 10 11 12 13 14 15
000
FTUS42 KGSP 301700 RRA
TAFAND
TAF
KAND 301742Z 3018/3118 16005KT P6SM SCT040
     FM302000 17005KT P6SM BKN050
     FM310200 00000KT P6SM BKN060
     FM310900 00000KT 4SM BR BKN100
     FM311200 19003KT P6SM SCT100=

USA.gov is the U.S. government's official web portal to all federal, state and local government web resources and services.